createdAt,value
2019-02-07T00:02:20.666Z,18.10
2019-02-07T00:04:48.388Z,15.93
2019-02-07T00:07:14.852Z,14.90
2019-02-07T00:09:41.514Z,16.60
2019-02-07T00:12:07.885Z,15.40
2019-02-07T00:14:39.861Z,14.73
2019-02-07T00:17:02.582Z,16.67
2019-02-07T00:19:28.998Z,14.80
2019-02-07T00:21:55.294Z,16.33
2019-02-07T00:24:21.926Z,17.03
2019-02-07T00:26:48.271Z,16.60
2019-02-07T00:29:14.588Z,15.20
2019-02-07T00:31:40.888Z,15.90
2019-02-07T00:34:07.393Z,16.20
2019-02-07T00:36:33.755Z,15.80
2019-02-07T00:39:01.196Z,15.90
2019-02-07T00:41:29.696Z,15.83
2019-02-07T00:43:56.426Z,14.00
2019-02-07T00:46:22.996Z,16.27
2019-02-07T00:48:49.610Z,14.87
2019-02-07T00:51:16.207Z,14.73
2019-02-07T00:53:42.564Z,16.87
2019-02-07T00:56:09.108Z,15.63
2019-02-07T00:58:35.437Z,18.10
2019-02-07T01:01:02.357Z,16.87
2019-02-07T01:03:29.661Z,18.07
2019-02-07T01:05:56.278Z,17.23
2019-02-07T01:08:22.606Z,17.20
2019-02-07T01:10:49.185Z,18.83
2019-02-07T01:13:16.049Z,18.03
2019-02-07T01:15:42.359Z,19.00
2019-02-07T01:18:08.998Z,18.70
2019-02-07T01:20:35.800Z,20.73
2019-02-07T01:23:02.230Z,18.50
2019-02-07T01:25:28.563Z,19.50
2019-02-07T01:27:54.879Z,16.60
2019-02-07T01:30:25.777Z,18.07
2019-02-07T01:32:52.376Z,17.30
2019-02-07T01:35:18.947Z,19.07
2019-02-07T01:37:45.659Z,20.43
2019-02-07T01:40:15.569Z,18.53
2019-02-07T01:42:42.152Z,19.63
2019-02-07T01:45:13.451Z,20.17
2019-02-07T01:47:39.840Z,19.73
2019-02-07T01:50:13.833Z,18.10
2019-02-07T01:52:41.000Z,18.87
2019-02-07T01:55:07.793Z,18.43
2019-02-07T01:57:34.465Z,20.90
2019-02-07T02:00:01.039Z,19.10
2019-02-07T02:02:27.327Z,20.20
2019-02-07T02:04:53.648Z,19.37
2019-02-07T02:07:19.962Z,19.53
2019-02-07T02:09:46.304Z,20.40
2019-02-07T02:12:12.616Z,19.47
2019-02-07T02:14:39.714Z,19.43
2019-02-07T02:17:06.314Z,19.80
2019-02-07T02:19:32.894Z,16.50
2019-02-07T02:21:59.296Z,19.17
2019-02-07T02:24:25.927Z,18.80
2019-02-07T02:26:52.217Z,17.53
2019-02-07T02:29:18.877Z,17.93
2019-02-07T02:31:45.466Z,18.87
2019-02-07T02:34:12.005Z,18.47
2019-02-07T02:36:38.586Z,18.97
2019-02-07T02:39:06.507Z,17.30
2019-02-07T02:41:33.386Z,16.93
2019-02-07T02:44:00.704Z,16.47
2019-02-07T02:46:27.274Z,17.13
2019-02-07T02:48:53.655Z,17.57
2019-02-07T02:51:19.939Z,17.03
2019-02-07T02:53:46.360Z,18.00
2019-02-07T02:56:12.673Z,16.60
2019-02-07T02:58:38.997Z,16.20
2019-02-07T03:01:23.892Z,16.83
2019-02-07T03:03:52.366Z,19.00
2019-02-07T03:06:39.263Z,18.90
2019-02-07T03:09:10.950Z,20.03
2019-02-07T03:11:56.946Z,17.53
2019-02-07T03:14:28.685Z,18.33
2019-02-07T03:17:04.184Z,16.53
2019-02-07T03:19:48.727Z,17.37
2019-02-07T03:22:33.289Z,18.50
2019-02-07T03:25:18.162Z,18.73
2019-02-07T03:27:49.513Z,17.20
2019-02-07T03:30:34.079Z,17.77
2019-02-07T03:33:11.165Z,19.10
2019-02-07T03:35:45.371Z,17.87
2019-02-07T03:38:16.462Z,19.17
2019-02-07T03:40:45.171Z,17.60
2019-02-07T03:43:16.561Z,17.90
2019-02-07T03:45:45.080Z,17.77
2019-02-07T03:48:25.314Z,15.23
2019-02-07T03:50:58.157Z,19.03
2019-02-07T03:53:43.114Z,17.17
2019-02-07T03:56:30.361Z,16.77
2019-02-07T03:59:04.482Z,17.03
2019-02-07T04:01:32.737Z,18.80
2019-02-07T04:04:00.983Z,17.57
2019-02-07T04:06:29.568Z,16.93
2019-02-07T04:09:14.327Z,17.07
2019-02-07T04:11:45.445Z,16.40
2019-02-07T04:14:13.702Z,17.63
2019-02-07T04:16:56.730Z,18.10
2019-02-07T04:19:23.101Z,19.67
2019-02-07T04:22:06.362Z,17.30
2019-02-07T04:24:53.033Z,20.47
2019-02-07T04:27:31.282Z,19.47
2019-02-07T04:30:05.179Z,17.03
2019-02-07T04:32:42.447Z,19.23
2019-02-07T04:35:10.902Z,18.57
2019-02-07T04:37:39.352Z,18.93
2019-02-07T04:40:12.409Z,18.13
2019-02-07T04:42:41.688Z,17.77
2019-02-07T04:45:10.183Z,18.50
2019-02-07T04:47:38.728Z,19.47
2019-02-07T04:50:10.425Z,20.30
2019-02-07T04:52:41.783Z,17.83
2019-02-07T04:55:26.683Z,18.57
2019-02-07T04:57:54.968Z,16.77
2019-02-07T05:00:21.659Z,18.70
2019-02-07T05:02:53.548Z,18.00
2019-02-07T05:05:22.019Z,19.30
2019-02-07T05:07:50.378Z,20.00
2019-02-07T05:10:34.010Z,19.47
2019-02-07T05:13:20.617Z,19.63
2019-02-07T05:15:49.238Z,18.00
2019-02-07T05:18:17.832Z,19.50
2019-02-07T05:20:46.377Z,18.43
2019-02-07T05:23:20.400Z,18.63
2019-02-07T05:26:04.985Z,19.40
2019-02-07T05:28:39.195Z,19.90
2019-02-07T05:31:07.494Z,18.90
2019-02-07T05:33:41.979Z,18.30
2019-02-07T05:36:10.539Z,17.40
2019-02-07T05:38:48.071Z,17.43
2019-02-07T05:41:19.567Z,19.10
2019-02-07T05:43:55.180Z,18.53
2019-02-07T05:46:50.773Z,19.10
2019-02-07T05:49:18.346Z,16.50
2019-02-07T05:51:44.692Z,17.40
2019-02-07T05:54:31.249Z,19.67
2019-02-07T05:57:11.586Z,17.47
2019-02-07T05:59:58.309Z,17.23
2019-02-07T06:02:35.551Z,18.20
2019-02-07T06:05:05.217Z,17.73
2019-02-07T06:07:33.709Z,19.47
2019-02-07T06:10:18.949Z,16.90
2019-02-07T06:12:45.388Z,16.70
2019-02-07T06:15:29.072Z,17.43
2019-02-07T06:18:00.583Z,15.87
2019-02-07T06:20:33.114Z,15.00
2019-02-07T06:23:01.615Z,17.10
2019-02-07T06:25:38.764Z,16.57
2019-02-07T06:28:14.158Z,17.27
2019-02-07T06:30:44.135Z,16.63
2019-02-07T06:33:20.877Z,16.93
2019-02-07T06:36:04.622Z,16.40
2019-02-07T06:38:47.893Z,16.00
2019-02-07T06:41:15.131Z,17.10
2019-02-07T06:43:43.590Z,16.43
2019-02-07T06:46:17.520Z,17.47
2019-02-07T06:48:48.454Z,16.70
2019-02-07T06:51:17.091Z,15.80
2019-02-07T06:53:43.709Z,17.20
2019-02-07T06:56:11.958Z,16.93
2019-02-07T06:58:43.915Z,16.00
2019-02-07T07:01:24.243Z,18.07
2019-02-07T07:04:08.829Z,16.53
2019-02-07T07:06:43.157Z,15.03
2019-02-07T07:09:11.883Z,15.57
2019-02-07T07:11:55.177Z,15.37
2019-02-07T07:14:35.244Z,15.87
2019-02-07T07:17:10.864Z,15.27
2019-02-07T07:19:55.502Z,15.10
2019-02-07T07:22:23.713Z,13.50
2019-02-07T07:24:49.999Z,15.47
2019-02-07T07:27:29.939Z,16.30
2019-02-07T07:30:01.308Z,15.90
2019-02-07T07:32:45.867Z,14.73
2019-02-07T07:35:14.325Z,16.57
2019-02-07T07:37:55.676Z,14.03
2019-02-07T07:40:40.129Z,13.30
2019-02-07T07:43:26.870Z,13.57
2019-02-07T07:46:11.392Z,13.13
2019-02-07T07:48:40.427Z,12.30
2019-02-07T07:51:25.287Z,12.90
2019-02-07T07:54:10.050Z,12.97
2019-02-07T07:56:45.087Z,12.50
2019-02-07T07:59:26.465Z,12.53
2019-02-07T08:02:10.988Z,11.80
2019-02-07T08:04:41.866Z,10.40
2019-02-07T08:07:14.365Z,11.40
2019-02-07T08:09:42.584Z,11.97
2019-02-07T08:12:13.477Z,12.53
2019-02-07T08:14:47.904Z,10.27
2019-02-07T08:17:22.052Z,11.03
2019-02-07T08:19:53.521Z,12.03
2019-02-07T08:22:24.381Z,11.70
2019-02-07T08:25:08.926Z,12.30
2019-02-07T08:27:38.372Z,12.00
2019-02-07T08:30:11.116Z,12.03
2019-02-07T08:32:39.525Z,11.13
2019-02-07T08:35:08.862Z,12.20
2019-02-07T08:37:53.452Z,12.10
2019-02-07T08:40:21.690Z,11.87
2019-02-07T08:42:53.552Z,10.63
2019-02-07T08:45:38.407Z,11.27
2019-02-07T08:48:06.722Z,11.07
2019-02-07T08:50:35.857Z,12.70
2019-02-07T08:53:04.354Z,13.27
2019-02-07T08:55:34.983Z,11.50
2019-02-07T08:58:02.876Z,12.83
2019-02-07T09:00:34.011Z,11.23
2019-02-07T09:03:05.206Z,11.67
2019-02-07T09:05:40.265Z,11.23
2019-02-07T09:08:20.623Z,11.73
2019-02-07T09:10:51.798Z,10.43
2019-02-07T09:13:36.638Z,11.00
2019-02-07T09:16:21.221Z,11.10
2019-02-07T09:18:47.634Z,12.57
2019-02-07T09:21:14.274Z,11.87
2019-02-07T09:23:48.481Z,11.87
2019-02-07T09:26:16.704Z,12.57
2019-02-07T09:29:01.527Z,13.03
2019-02-07T09:31:30.726Z,11.50
2019-02-07T09:34:06.139Z,12.97
2019-02-07T09:36:50.710Z,11.83
2019-02-07T09:39:19.287Z,12.07
2019-02-07T09:41:50.184Z,13.97
2019-02-07T09:44:30.461Z,13.47
2019-02-07T09:46:58.664Z,13.17
2019-02-07T09:49:27.622Z,13.30
2019-02-07T09:51:58.723Z,15.47
2019-02-07T09:54:27.065Z,14.13
2019-02-07T09:57:10.094Z,13.67
2019-02-07T09:59:54.725Z,12.83
2019-02-07T10:02:24.331Z,12.00
2019-02-07T10:04:55.201Z,11.27
2019-02-07T10:07:26.130Z,11.13
2019-02-07T10:09:58.496Z,11.33
2019-02-07T10:12:42.970Z,12.13
2019-02-07T10:15:26.018Z,12.23
2019-02-07T10:17:54.513Z,14.23
2019-02-07T10:20:28.825Z,11.83
2019-02-07T10:22:57.159Z,10.67
2019-02-07T10:25:41.979Z,13.17
2019-02-07T10:28:16.479Z,12.20
2019-02-07T10:30:44.737Z,14.20
2019-02-07T10:33:15.607Z,11.63
2019-02-07T10:36:01.717Z,13.20
2019-02-07T10:38:45.039Z,12.10
2019-02-07T10:41:28.300Z,10.57
2019-02-07T10:43:55.650Z,12.00
2019-02-07T10:46:40.598Z,11.00
2019-02-07T10:49:19.769Z,12.40
2019-02-07T10:51:48.132Z,13.03
2019-02-07T10:54:29.668Z,11.43
2019-02-07T10:57:10.098Z,12.73
2019-02-07T10:59:38.687Z,11.57
2019-02-07T11:02:16.765Z,11.17
2019-02-07T11:05:04.142Z,12.20
2019-02-07T11:07:38.484Z,9.60
2019-02-07T11:10:17.339Z,11.13
2019-02-07T11:13:01.016Z,10.80
2019-02-07T11:15:29.732Z,9.53
2019-02-07T11:18:01.142Z,9.77
2019-02-07T11:20:44.503Z,9.43
2019-02-07T11:23:18.675Z,9.37
2019-02-07T11:26:02.277Z,10.70
2019-02-07T11:28:36.473Z,9.50
2019-02-07T11:31:06.796Z,9.90
2019-02-07T11:33:38.690Z,9.70
2019-02-07T11:36:23.703Z,9.50
2019-02-07T11:38:55.738Z,9.17
2019-02-07T11:41:33.228Z,9.63
2019-02-07T11:44:19.106Z,9.90
2019-02-07T11:47:05.631Z,9.50
2019-02-07T11:49:37.711Z,9.83
2019-02-07T11:52:23.641Z,9.10
2019-02-07T11:54:58.127Z,9.63
2019-02-07T11:57:35.432Z,9.00
2019-02-07T12:00:15.377Z,10.00
2019-02-07T12:03:00.281Z,9.13
2019-02-07T12:05:43.593Z,8.70
2019-02-07T12:08:13.174Z,9.63
2019-02-07T12:10:41.714Z,10.77
2019-02-07T12:13:10.253Z,9.40
2019-02-07T12:15:44.548Z,10.80
2019-02-07T12:18:15.992Z,10.97
2019-02-07T12:20:48.090Z,10.43
2019-02-07T12:23:19.389Z,11.40
2019-02-07T12:25:47.662Z,10.23
2019-02-07T12:28:31.205Z,11.17
2019-02-07T12:31:06.002Z,11.60
2019-02-07T12:33:49.458Z,11.30
2019-02-07T12:36:33.660Z,12.60
2019-02-07T12:39:19.768Z,12.00
2019-02-07T12:41:51.570Z,10.90
2019-02-07T12:44:36.289Z,13.03
2019-02-07T12:47:18.024Z,11.47
2019-02-07T12:49:58.585Z,12.97
2019-02-07T12:52:40.351Z,12.40
2019-02-07T12:55:09.786Z,11.20
2019-02-07T12:57:38.025Z,11.57
2019-02-07T13:00:11.995Z,12.33
2019-02-07T13:02:47.248Z,13.03
2019-02-07T13:05:15.932Z,11.83
2019-02-07T13:07:47.157Z,13.40
2019-02-07T13:10:16.807Z,14.73
2019-02-07T13:12:45.056Z,11.80
2019-02-07T13:15:14.604Z,13.60
2019-02-07T13:17:48.857Z,14.67
2019-02-07T13:20:26.156Z,15.37
2019-02-07T13:23:11.168Z,13.43
2019-02-07T13:25:40.496Z,12.23
2019-02-07T13:28:13.214Z,15.03
2019-02-07T13:30:57.730Z,13.17
2019-02-07T13:33:28.940Z,13.70
2019-02-07T13:35:58.345Z,15.10
2019-02-07T13:38:29.526Z,13.50
2019-02-07T13:41:03.663Z,12.93
2019-02-07T13:43:30.251Z,15.90
2019-02-07T13:46:02.301Z,14.90
2019-02-07T13:48:30.727Z,15.03
2019-02-07T13:51:15.241Z,15.53
2019-02-07T13:53:49.691Z,14.87
2019-02-07T13:56:27.950Z,13.60
2019-02-07T13:58:54.343Z,13.83
2019-02-07T14:01:40.396Z,14.07
2019-02-07T14:04:20.385Z,15.47
2019-02-07T14:06:51.812Z,13.53
2019-02-07T14:09:36.496Z,15.50
2019-02-07T14:12:05.331Z,14.70
2019-02-07T14:14:38.159Z,15.20
2019-02-07T14:17:06.719Z,15.07
2019-02-07T14:20:02.991Z,14.80
2019-02-07T14:22:22.987Z,13.70
2019-02-07T14:25:06.331Z,14.30
2019-02-07T14:27:35.532Z,14.70
2019-02-07T14:30:11.558Z,16.53
2019-02-07T14:32:40.374Z,16.37
2019-02-07T14:35:28.789Z,15.00
2019-02-07T14:37:59.967Z,16.30
2019-02-07T14:40:40.607Z,15.00
2019-02-07T14:43:12.074Z,17.57
2019-02-07T14:45:40.585Z,15.20
2019-02-07T14:48:07.252Z,16.90
2019-02-07T14:50:33.934Z,15.63
2019-02-07T14:53:02.099Z,16.23
2019-02-07T14:55:28.713Z,16.40
2019-02-07T14:57:55.051Z,17.00
2019-02-07T15:00:24.385Z,16.90
2019-02-07T15:02:50.746Z,13.47
2019-02-07T15:05:17.074Z,14.33
2019-02-07T15:07:43.686Z,14.70
2019-02-07T15:10:18.111Z,16.00
2019-02-07T15:12:45.534Z,14.50
2019-02-07T15:15:16.499Z,15.17
2019-02-07T15:17:43.174Z,14.17
2019-02-07T15:20:11.380Z,14.40
2019-02-07T15:22:38.087Z,15.67
2019-02-07T15:25:09.995Z,16.87
2019-02-07T15:27:36.749Z,16.20
2019-02-07T15:30:11.694Z,14.20
2019-02-07T15:32:38.306Z,16.93
2019-02-07T15:35:32.682Z,18.87
2019-02-07T15:38:00.182Z,17.93
2019-02-07T15:40:26.542Z,15.53
2019-02-07T15:42:53.631Z,16.43
2019-02-07T15:45:20.367Z,17.03
2019-02-07T15:47:47.051Z,16.87
2019-02-07T15:50:18.822Z,17.10
2019-02-07T15:52:45.292Z,16.90
2019-02-07T15:55:12.510Z,17.27
2019-02-07T15:57:39.266Z,16.87
2019-02-07T16:00:37.562Z,17.73
2019-02-07T16:03:09.760Z,16.43
2019-02-07T16:05:36.204Z,16.33
2019-02-07T16:08:03.151Z,18.47
2019-02-07T16:10:29.757Z,16.97
2019-02-07T16:12:59.542Z,19.50
2019-02-07T16:15:25.961Z,18.00
2019-02-07T16:17:52.315Z,16.80
2019-02-07T16:20:21.373Z,17.90
2019-02-07T16:22:48.271Z,19.70
2019-02-07T16:25:15.822Z,19.27
2019-02-07T16:27:42.425Z,18.97
2019-02-07T16:30:12.897Z,18.70
2019-02-07T16:32:39.323Z,17.73
2019-02-07T16:35:06.379Z,19.43
2019-02-07T16:37:33.022Z,18.40
2019-02-07T16:40:00.377Z,17.57
2019-02-07T16:42:27.055Z,18.30
2019-02-07T16:44:53.526Z,19.47
2019-02-07T16:47:19.980Z,18.63
2019-02-07T16:49:46.376Z,18.73
2019-02-07T16:52:13.020Z,15.23
2019-02-07T16:54:39.366Z,18.70
2019-02-07T16:57:05.938Z,17.20
2019-02-07T16:59:32.627Z,16.40
2019-02-07T17:01:59.361Z,19.03
2019-02-07T17:04:25.704Z,18.40
2019-02-07T17:06:52.381Z,17.50
2019-02-07T17:09:21.023Z,19.20
2019-02-07T17:11:47.410Z,17.43
2019-02-07T17:14:14.035Z,16.63
2019-02-07T17:16:41.048Z,19.00
2019-02-07T17:19:07.378Z,17.90
2019-02-07T17:21:33.680Z,19.00
2019-02-07T17:24:00.271Z,16.70
2019-02-07T17:26:27.132Z,16.00
2019-02-07T17:28:53.635Z,17.80
2019-02-07T17:31:20.648Z,17.20
2019-02-07T17:33:47.186Z,18.03
2019-02-07T17:36:14.212Z,18.00
2019-02-07T17:38:41.976Z,17.43
2019-02-07T17:41:11.141Z,19.57
2019-02-07T17:43:40.345Z,18.53
2019-02-07T17:46:07.133Z,18.57
2019-02-07T17:48:34.099Z,19.50
2019-02-07T17:51:00.883Z,19.50
2019-02-07T17:53:28.700Z,17.30
2019-02-07T17:55:55.344Z,18.03
2019-02-07T17:58:21.858Z,18.30
2019-02-07T18:01:00.826Z,18.23
2019-02-07T18:03:27.609Z,18.20
2019-02-07T18:05:53.941Z,18.20
2019-02-07T18:08:20.494Z,20.53
2019-02-07T18:10:47.877Z,19.40
2019-02-07T18:13:16.457Z,19.00
2019-02-07T18:15:43.112Z,19.60
2019-02-07T18:18:09.581Z,18.70
2019-02-07T18:20:36.343Z,18.20
2019-02-07T18:23:03.272Z,18.60
2019-02-07T18:25:29.898Z,18.20
2019-02-07T18:28:01.579Z,18.37
2019-02-07T18:30:28.160Z,18.97
2019-02-07T18:32:54.759Z,17.87
2019-02-07T18:35:21.549Z,20.33
2019-02-07T18:37:48.107Z,18.53
2019-02-07T18:40:22.019Z,19.00
2019-02-07T18:42:48.522Z,21.80
2019-02-07T18:45:18.060Z,20.57
2019-02-07T18:47:44.918Z,18.80
2019-02-07T18:50:22.201Z,19.47
2019-02-07T18:52:49.134Z,19.00
2019-02-07T18:55:16.001Z,19.97
2019-02-07T18:57:42.983Z,20.97
2019-02-07T19:00:21.090Z,21.87
2019-02-07T19:02:52.786Z,20.37
2019-02-07T19:05:21.677Z,20.93
2019-02-07T19:07:48.121Z,19.60
2019-02-07T19:10:21.459Z,20.87
2019-02-07T19:12:49.252Z,21.60
2019-02-07T19:15:38.442Z,19.57
2019-02-07T19:18:06.030Z,19.43
2019-02-07T19:20:32.468Z,21.13
2019-02-07T19:22:59.109Z,24.77
2019-02-07T19:25:25.573Z,22.10
2019-02-07T19:27:52.211Z,21.40
2019-02-07T19:30:26.058Z,19.10
2019-02-07T19:32:53.300Z,19.57
2019-02-07T19:35:19.648Z,19.73
2019-02-07T19:37:46.399Z,20.70
2019-02-07T19:40:18.165Z,20.50
2019-02-07T19:42:44.965Z,21.20
2019-02-07T19:45:22.119Z,23.83
2019-02-07T19:47:48.888Z,20.07
2019-02-07T19:50:20.878Z,22.70
2019-02-07T19:52:47.993Z,20.90
2019-02-07T19:55:17.621Z,21.30
2019-02-07T19:57:44.174Z,20.93
2019-02-07T20:00:30.794Z,20.30
2019-02-07T20:02:57.553Z,20.00
2019-02-07T20:05:24.164Z,24.03
2019-02-07T20:07:50.608Z,20.57
2019-02-07T20:10:23.218Z,22.00
2019-02-07T20:12:50.570Z,21.17
2019-02-07T20:15:24.457Z,20.27
2019-02-07T20:17:51.541Z,19.30
2019-02-07T20:20:17.984Z,22.90
2019-02-07T20:22:46.531Z,20.70
2019-02-07T20:25:15.269Z,21.30
2019-02-07T20:27:41.875Z,21.10
2019-02-07T20:30:16.470Z,20.90
2019-02-07T20:32:43.212Z,23.17
2019-02-07T20:35:10.433Z,20.97
2019-02-07T20:37:37.229Z,22.27
2019-02-07T20:40:08.477Z,22.93
2019-02-07T20:42:35.004Z,23.20
2019-02-07T20:45:01.502Z,21.37
2019-02-07T20:47:27.976Z,21.80
2019-02-07T20:49:54.827Z,21.13
2019-02-07T20:52:27.152Z,21.50
2019-02-07T20:54:49.933Z,19.43
2019-02-07T20:57:16.423Z,20.40
2019-02-07T20:59:43.202Z,23.00
2019-02-07T21:02:09.516Z,22.07
2019-02-07T21:04:35.917Z,22.37
2019-02-07T21:07:02.525Z,23.57
2019-02-07T21:09:29.330Z,24.37
2019-02-07T21:11:56.439Z,21.77
2019-02-07T21:14:22.858Z,22.37
2019-02-07T21:16:49.530Z,23.33
2019-02-07T21:19:15.888Z,21.87
2019-02-07T21:21:42.533Z,23.27
2019-02-07T21:24:09.263Z,21.70
2019-02-07T21:26:35.842Z,24.07
2019-02-07T21:29:02.585Z,21.53
2019-02-07T21:31:29.323Z,21.83
2019-02-07T21:33:56.247Z,22.30
2019-02-07T21:36:22.929Z,22.57
2019-02-07T21:38:49.366Z,21.27
2019-02-07T21:41:17.946Z,22.23
2019-02-07T21:43:44.283Z,21.70
2019-02-07T21:46:10.898Z,21.40
2019-02-07T21:48:37.376Z,21.80
2019-02-07T21:51:04.337Z,21.33
2019-02-07T21:53:30.649Z,23.30
2019-02-07T21:55:57.658Z,27.20
2019-02-07T21:58:24.268Z,23.33
2019-02-07T22:00:51.063Z,23.00
2019-02-07T22:03:18.126Z,23.80
2019-02-07T22:05:44.761Z,23.00
2019-02-07T22:08:11.796Z,22.50
2019-02-07T22:10:38.703Z,23.57
2019-02-07T22:13:05.744Z,23.10
2019-02-07T22:15:32.217Z,24.80
2019-02-07T22:17:59.878Z,24.10
2019-02-07T22:20:29.019Z,28.10
2019-02-07T22:22:55.752Z,24.70
2019-02-07T22:25:22.287Z,25.40
2019-02-07T22:27:48.724Z,23.30
2019-02-07T22:30:25.913Z,25.47
2019-02-07T22:32:52.358Z,27.13
2019-02-07T22:35:18.696Z,27.27
2019-02-07T22:37:45.211Z,27.80
2019-02-07T22:40:20.812Z,22.60
2019-02-07T22:42:48.170Z,23.03
2019-02-07T22:45:17.633Z,23.67
2019-02-07T22:47:44.341Z,25.40
2019-02-07T22:50:15.108Z,24.90
2019-02-07T22:52:41.498Z,24.63
2019-02-07T22:55:09.748Z,23.90
2019-02-07T22:57:36.485Z,24.57
2019-02-07T23:00:33.258Z,23.17
2019-02-07T23:03:17.295Z,23.83
2019-02-07T23:05:43.703Z,22.63
2019-02-07T23:08:10.738Z,24.40
2019-02-07T23:10:39.298Z,22.87
2019-02-07T23:13:07.119Z,22.27
2019-02-07T23:15:33.442Z,25.03
2019-02-07T23:17:59.762Z,24.70
2019-02-07T23:20:26.082Z,25.03
2019-02-07T23:22:52.665Z,22.27
2019-02-07T23:25:19.278Z,23.90
2019-02-07T23:27:45.714Z,24.73
2019-02-07T23:30:17.439Z,22.97
2019-02-07T23:32:44.226Z,22.40
2019-02-07T23:35:11.226Z,22.43
2019-02-07T23:37:37.632Z,22.80
2019-02-07T23:40:11.583Z,23.80
2019-02-07T23:42:37.999Z,25.07
2019-02-07T23:45:11.084Z,24.60
2019-02-07T23:47:37.680Z,24.60
2019-02-07T23:50:07.239Z,25.27
2019-02-07T23:52:33.814Z,24.20
2019-02-07T23:55:01.229Z,24.17
2019-02-07T23:57:27.886Z,22.50
2019-02-07T23:59:54.457Z,24.43
